Time;durP1;ratioP1;P1;durP2;ratioP2;P2;SDS_P1;SDS_P2;PMS_P1;PMS_P2;Temp;Humidity;BMP_temperature;BMP_pressure;BME280_temperature;BME280_humidity;BME280_pressure;Samples;Min_cycle;Max_cycle;Signal;HPM_P1;HPM_P2
2023/06/17 00:02:02;;;;;;;5.67;4.00;;;;;;;-145.18;100.00;46511.94;5074792;28;20119;-57
2023/06/17 00:04:27;;;;;;;5.73;4.30;;;;;;;-145.18;100.00;46515.84;5074310;28;20035;-57
2023/06/17 00:06:53;;;;;;;7.53;4.00;;;;;;;-145.18;100.00;46519.75;5074668;28;20107;-57
2023/06/17 00:09:20;;;;;;;5.83;4.40;;;;;;;-145.18;100.00;46523.66;5075113;28;20395;-57
2023/06/17 00:11:46;;;;;;;4.87;3.93;;;;;;;-145.18;100.00;46521.72;5074349;28;20476;-57
2023/06/17 00:14:11;;;;;;;10.20;4.87;;;;;;;-145.18;100.00;46513.91;5074256;28;20060;-57
2023/06/17 00:16:36;;;;;;;6.77;4.30;;;;;;;-145.18;100.00;46517.81;5061401;28;20048;-57
2023/06/17 00:19:05;;;;;;;6.77;3.90;;;;;;;-145.18;100.00;46527.56;5074152;28;20114;-57
2023/06/17 00:21:31;;;;;;;6.93;4.30;;;;;;;-145.18;100.00;46527.56;5056570;28;20496;-57
2023/06/17 00:23:57;;;;;;;5.47;4.03;;;;;;;-145.18;100.00;46521.72;5073435;28;20032;-56
2023/06/17 00:26:23;;;;;;;6.80;4.40;;;;;;;-145.18;100.00;46517.81;5074348;28;20115;-58
2023/06/17 00:28:48;;;;;;;6.70;4.30;;;;;;;-145.18;100.00;46529.53;5060013;28;20036;-57
2023/06/17 00:31:14;;;;;;;6.30;3.93;;;;;;;-145.18;100.00;46517.81;5073914;28;20046;-57
2023/06/17 00:33:39;;;;;;;4.93;3.87;;;;;;;-145.18;100.00;46519.75;5055559;28;20032;-58
2023/06/17 00:36:05;;;;;;;6.27;4.03;;;;;;;-145.18;100.00;46517.81;5055628;28;20427;-58
2023/06/17 00:38:30;;;;;;;6.93;4.40;;;;;;;-145.18;100.00;46515.84;5085861;28;20032;-58
2023/06/17 00:40:56;;;;;;;8.80;4.27;;;;;;;-145.18;100.00;46523.66;5107158;28;20110;-58
2023/06/17 00:43:21;;;;;;;6.20;4.33;;;;;;;-145.18;100.00;46513.91;5082079;28;20111;-57
2023/06/17 00:45:47;;;;;;;6.60;4.57;;;;;;;-145.18;100.00;46523.66;5079915;28;20047;-57
2023/06/17 00:48:13;;;;;;;6.80;4.20;;;;;;;-145.18;100.00;46513.91;5093609;28;20483;-57
2023/06/17 00:50:39;;;;;;;7.73;4.67;;;;;;;-145.18;100.00;46517.81;5092582;28;20032;-57
2023/06/17 00:53:06;;;;;;;8.17;4.37;;;;;;;-145.18;100.00;46523.66;5093182;28;20044;-57
2023/06/17 00:55:32;;;;;;;6.03;4.83;;;;;;;-145.18;100.00;46523.66;5088281;28;20392;-57
2023/06/17 00:57:59;;;;;;;8.00;4.57;;;;;;;-145.18;100.00;46523.66;5091489;28;20028;-56
2023/06/17 01:00:25;;;;;;;4.43;3.73;;;;;;;-145.18;100.00;46523.66;5081083;28;20050;-58
2023/06/17 01:02:51;;;;;;;5.97;4.53;;;;;;;-145.18;100.00;46525.63;5078225;28;20024;-58
2023/06/17 01:05:17;;;;;;;8.30;4.30;;;;;;;-145.18;100.00;46523.66;5072943;28;20025;-57
2023/06/17 01:08:09;;;;;;;9.80;4.67;;;;;;;-145.18;100.00;46523.66;5072784;28;20031;-58
2023/06/17 01:11:18;;;;;;;8.17;4.37;;;;;;;-145.18;100.00;46527.56;5073033;28;20123;-57
2023/06/17 01:13:47;;;;;;;8.40;4.73;;;;;;;-145.18;100.00;46519.75;5078757;28;20040;-58
2023/06/17 01:16:14;;;;;;;6.93;4.60;;;;;;;-145.18;100.00;46527.56;5083267;28;20048;-57
2023/06/17 01:18:40;;;;;;;5.97;4.60;;;;;;;-145.18;100.00;46523.66;5092418;28;20452;-57
2023/06/17 01:21:06;;;;;;;8.40;5.47;;;;;;;-145.18;100.00;46519.75;5078820;28;20032;-58
2023/06/17 01:23:37;;;;;;;6.03;4.97;;;;;;;-145.18;100.00;46523.66;5090642;28;20028;-57
2023/06/17 01:26:04;;;;;;;8.03;5.60;;;;;;;-145.18;100.00;46517.81;5087630;28;20020;-57
2023/06/17 01:28:30;;;;;;;9.43;5.83;;;;;;;-145.18;100.00;46527.56;5091946;28;20483;-57
2023/06/17 01:30:56;;;;;;;9.57;5.47;;;;;;;-145.18;100.00;46523.66;5106233;28;20555;-57
2023/06/17 01:33:23;;;;;;;8.57;5.80;;;;;;;-145.18;100.00;46519.75;5080049;28;20040;-57
2023/06/17 01:36:07;;;;;;;9.00;6.23;;;;;;;-145.18;100.00;46521.72;5089524;28;20035;-56
2023/06/17 01:38:50;;;;;;;11.53;6.23;;;;;;;-145.18;100.00;46549.06;5092024;28;20498;-57
2023/06/17 01:41:19;;;;;;;10.23;6.90;;;;;;;-145.18;100.00;46623.28;5092461;28;20028;-57
2023/06/17 01:43:46;;;;;;;14.17;7.03;;;;;;;-145.18;100.00;46660.41;5092492;28;20050;-57
2023/06/17 01:46:13;;;;;;;8.67;5.53;;;;;;;-145.18;100.00;46681.88;5073983;28;20028;-57
2023/06/17 01:48:39;;;;;;;10.17;5.53;;;;;;;-145.18;100.00;46648.69;5089128;28;20032;-55
2023/06/17 01:51:05;;;;;;;10.60;5.80;;;;;;;-145.18;100.00;46658.44;5092161;28;20110;-58
2023/06/17 01:53:31;;;;;;;7.77;6.03;;;;;;;-145.18;100.00;46658.44;5084590;28;20036;-58
2023/06/17 01:55:56;;;;;;;12.87;7.03;;;;;;;-145.18;100.00;46656.50;5087177;28;20043;-57
2023/06/17 01:58:22;;;;;;;10.07;6.63;;;;;;;-145.18;100.00;46660.41;5075929;28;20060;-57
2023/06/17 02:00:48;;;;;;;11.50;6.33;;;;;;;-145.18;100.00;46660.41;5083255;28;20441;-57
2023/06/17 02:03:13;;;;;;;11.30;6.63;;;;;;;-145.18;100.00;46660.41;5091391;28;20024;-57
2023/06/17 02:05:38;;;;;;;9.43;6.33;;;;;;;-145.18;100.00;46660.41;5084649;28;20035;-57
2023/06/17 02:08:05;;;;;;;10.73;6.73;;;;;;;-145.18;100.00;46660.41;5081710;28;20043;-57
2023/06/17 02:10:31;;;;;;;13.13;6.20;;;;;;;-145.18;100.00;46658.44;5091924;28;20467;-57
2023/06/17 02:12:57;;;;;;;8.27;5.77;;;;;;;-145.18;100.00;46654.53;5086628;28;20034;-57
2023/06/17 02:15:22;;;;;;;8.93;5.67;;;;;;;-145.18;100.00;46666.25;5079195;28;20063;-57
2023/06/17 02:17:47;;;;;;;10.73;6.60;;;;;;;-145.18;100.00;46658.44;5058008;28;20028;-57
2023/06/17 02:20:13;;;;;;;8.77;6.33;;;;;;;-145.18;100.00;46656.50;5092168;28;20027;-57
2023/06/17 02:22:38;;;;;;;9.60;6.83;;;;;;;-145.18;100.00;46656.50;5090385;28;20020;-57
2023/06/17 02:25:05;;;;;;;10.07;6.10;;;;;;;-145.18;100.00;46652.59;5085271;28;20110;-57
2023/06/17 02:27:30;;;;;;;9.20;6.10;;;;;;;-145.18;100.00;46658.44;5065934;28;20064;-56
2023/06/17 02:29:56;;;;;;;11.07;6.80;;;;;;;-145.18;100.00;46658.44;5082601;28;20036;-57
2023/06/17 02:32:21;;;;;;;10.10;6.17;;;;;;;-145.18;100.00;46656.50;5084251;28;20107;-57
2023/06/17 02:34:49;;;;;;;9.93;6.77;;;;;;;-145.18;100.00;46658.44;5071704;28;20119;-57
2023/06/17 02:37:15;;;;;;;10.00;6.07;;;;;;;-145.18;100.00;46664.31;5075245;28;20024;-57
2023/06/17 02:39:41;;;;;;;9.37;6.10;;;;;;;-145.18;100.00;46664.31;5091807;28;20521;-58
2023/06/17 02:42:08;;;;;;;8.87;6.10;;;;;;;-145.18;100.00;46656.50;5086452;28;20032;-57
2023/06/17 02:44:33;;;;;;;9.40;6.40;;;;;;;-145.18;100.00;46656.50;5067853;28;20054;-57
2023/06/17 02:46:59;;;;;;;8.30;5.83;;;;;;;-145.18;100.00;46660.41;5088431;28;20472;-57
2023/06/17 02:49:24;;;;;;;10.23;5.93;;;;;;;-145.18;100.00;46656.50;5106739;28;20074;-57
2023/06/17 02:51:51;;;;;;;9.70;6.57;;;;;;;-145.18;100.00;46660.41;5087799;28;20028;-57
2023/06/17 02:54:16;;;;;;;13.47;6.23;;;;;;;-145.18;100.00;46660.41;5079253;28;20252;-57
2023/06/17 02:56:42;;;;;;;10.33;5.97;;;;;;;-145.18;100.00;46660.41;5087823;28;20032;-57
2023/06/17 02:59:08;;;;;;;12.00;7.00;;;;;;;-145.18;100.00;46662.34;5091179;28;20070;-58
2023/06/17 03:01:39;;;;;;;10.93;6.43;;;;;;;-145.18;100.00;46656.50;5083136;28;20407;-57
2023/06/17 03:04:05;;;;;;;7.80;5.60;;;;;;;-145.18;100.00;46660.41;5083966;28;20032;-57
2023/06/17 03:06:33;;;;;;;11.50;6.30;;;;;;;-145.18;100.00;46662.34;5071162;28;20028;-57
2023/06/17 03:09:00;;;;;;;6.37;4.87;;;;;;;-145.18;100.00;46660.41;5091741;28;20063;-58
2023/06/17 03:11:25;;;;;;;8.20;4.17;;;;;;;-145.18;100.00;46654.53;5085414;28;20104;-58
2023/06/17 03:13:51;;;;;;;10.83;6.43;;;;;;;-145.18;100.00;46658.44;5071430;28;20123;-57
2023/06/17 03:16:16;;;;;;;9.67;6.07;;;;;;;-145.18;100.00;46656.50;5070635;28;20099;-57
2023/06/17 03:18:42;;;;;;;13.97;6.83;;;;;;;-145.18;100.00;46650.63;5071441;28;20071;-57
2023/06/17 03:21:07;;;;;;;8.43;5.80;;;;;;;-145.18;100.00;46650.63;5071598;28;20070;-57
2023/06/17 03:23:33;;;;;;;10.70;6.40;;;;;;;-145.18;100.00;46644.78;5069777;28;20028;-56
2023/06/17 03:25:58;;;;;;;11.13;6.67;;;;;;;-145.18;100.00;46660.41;5071581;28;20447;-57
2023/06/17 03:28:24;;;;;;;9.33;6.43;;;;;;;-145.18;100.00;46679.94;5054150;28;20037;-57
2023/06/17 03:30:49;;;;;;;9.93;6.67;;;;;;;-145.18;100.00;46681.88;5072374;28;20028;-58
2023/06/17 03:33:15;;;;;;;8.83;6.37;;;;;;;-145.18;100.00;46646.72;5071897;28;20032;-58
2023/06/17 03:35:40;;;;;;;9.37;6.10;;;;;;;-145.18;100.00;46650.63;5082117;28;20540;-58
2023/06/17 03:38:06;;;;;;;8.67;6.33;;;;;;;-145.18;100.00;46648.69;5095157;28;20066;-57
2023/06/17 03:40:31;;;;;;;11.80;6.73;;;;;;;-145.18;100.00;46646.72;5094425;28;20497;-58
2023/06/17 03:42:57;;;;;;;11.13;6.33;;;;;;;-145.18;100.00;46652.59;5094519;28;20086;-57
2023/06/17 03:45:22;;;;;;;10.20;6.97;;;;;;;-145.18;100.00;46652.59;5087327;28;20031;-58
2023/06/17 03:47:48;;;;;;;10.13;7.23;;;;;;;-145.18;100.00;46650.63;5084540;28;20394;-58
2023/06/17 03:50:13;;;;;;;10.87;7.87;;;;;;;-145.18;100.00;46654.53;5074798;28;20039;-58
2023/06/17 03:52:39;;;;;;;14.20;6.47;;;;;;;-145.18;100.00;46650.63;5074893;28;20051;-58
2023/06/17 03:55:05;;;;;;;12.03;6.80;;;;;;;-145.18;100.00;46650.63;5074277;28;20089;-58
2023/06/17 03:57:30;;;;;;;13.17;7.40;;;;;;;-145.18;100.00;46644.78;5074187;28;20039;-57
2023/06/17 03:59:56;;;;;;;10.40;7.57;;;;;;;-145.18;100.00;46648.69;5078309;28;20107;-57
2023/06/17 04:02:22;;;;;;;10.77;6.60;;;;;;;-145.18;100.00;46652.59;5094554;28;20040;-57
2023/06/17 04:04:47;;;;;;;10.67;7.60;;;;;;;-145.18;100.00;46652.59;5076093;28;20103;-57
2023/06/17 04:07:13;;;;;;;10.17;7.20;;;;;;;-145.18;100.00;46648.69;5084616;28;20127;-57
2023/06/17 04:09:38;;;;;;;11.67;6.97;;;;;;;-145.18;100.00;46648.69;5093813;28;20085;-58
2023/06/17 04:12:04;;;;;;;13.30;7.73;;;;;;;-145.18;100.00;46642.81;5066561;28;20043;-58
2023/06/17 04:14:29;;;;;;;14.77;7.70;;;;;;;-145.18;100.00;46642.81;5091044;28;20032;-58
2023/06/17 04:16:56;;;;;;;12.17;7.83;;;;;;;-145.18;100.00;46646.72;5073919;28;20556;-57
2023/06/17 04:19:23;;;;;;;10.17;7.47;;;;;;;-145.18;100.00;46644.78;5074459;28;20442;-58
2023/06/17 04:21:49;;;;;;;11.53;7.80;;;;;;;-145.18;100.00;46648.69;5073997;28;20115;-58
2023/06/17 04:24:14;;;;;;;9.97;7.53;;;;;;;-145.18;100.00;46642.81;5062476;28;20566;-57
2023/06/17 04:26:40;;;;;;;13.93;8.40;;;;;;;-145.18;100.00;46644.78;5084316;28;20035;-57
2023/06/17 04:29:05;;;;;;;10.00;7.33;;;;;;;-145.18;100.00;46648.69;5093311;28;20804;-57
2023/06/17 04:31:32;;;;;;;12.17;8.00;;;;;;;-145.18;100.00;46644.78;5075994;28;20384;-58
2023/06/17 04:33:59;;;;;;;12.50;8.53;;;;;;;-145.18;100.00;46644.78;5080324;28;20414;-57
2023/06/17 04:36:24;;;;;;;10.57;8.27;;;;;;;-145.18;100.00;46644.78;5086097;28;20032;-57
2023/06/17 04:38:49;;;;;;;11.43;8.43;;;;;;;-145.18;100.00;46640.88;5100686;28;20036;-57
2023/06/17 04:41:18;;;;;;;14.20;7.93;;;;;;;-145.18;100.00;46646.72;5073764;28;20036;-57
2023/06/17 04:43:48;;;;;;;11.33;7.90;;;;;;;-145.18;100.00;46646.72;5078217;28;20077;-57
2023/06/17 04:46:16;;;;;;;11.27;7.27;;;;;;;-145.18;100.00;46644.78;5080013;28;20035;-57
2023/06/17 04:48:43;;;;;;;14.37;8.80;;;;;;;-145.18;100.00;46642.81;5055399;28;20029;-57
2023/06/17 04:51:09;;;;;;;16.20;9.07;;;;;;;-145.18;100.00;46652.59;5073758;28;20401;-57
2023/06/17 04:53:38;;;;;;;12.70;8.50;;;;;;;-145.18;100.00;46648.69;5074675;28;20028;-58
2023/06/17 04:56:06;;;;;;;14.77;9.67;;;;;;;-145.18;100.00;46650.63;5077598;28;20043;-57
2023/06/17 04:58:32;;;;;;;18.13;9.80;;;;;;;-145.18;100.00;46654.53;5082066;28;20040;-57
2023/06/17 05:00:58;;;;;;;13.43;9.43;;;;;;;-145.18;100.00;46635.00;5085827;28;20047;-57
2023/06/17 05:03:23;;;;;;;15.80;10.07;;;;;;;-145.18;100.00;46627.19;5076348;28;20037;-57
2023/06/17 05:05:48;;;;;;;17.00;11.40;;;;;;;-145.18;100.00;46527.56;5077078;28;20491;-58
2023/06/17 05:08:14;;;;;;;17.00;10.93;;;;;;;-145.18;100.00;46513.91;5080868;28;20024;-57
2023/06/17 05:10:39;;;;;;;16.73;10.77;;;;;;;-145.18;100.00;46511.94;5087105;28;20036;-58
2023/06/17 05:13:05;;;;;;;15.67;11.30;;;;;;;-145.18;100.00;46511.94;5063078;28;20032;-58
2023/06/17 05:15:30;;;;;;;17.07;10.90;;;;;;;-145.18;100.00;46517.81;5074340;28;20067;-58
2023/06/17 05:17:55;;;;;;;15.60;10.37;;;;;;;-145.18;100.00;46521.72;5080293;28;20044;-57
2023/06/17 05:20:21;;;;;;;17.10;11.00;;;;;;;-145.18;100.00;46515.84;5086111;28;20188;-58
2023/06/17 05:22:46;;;;;;;17.67;11.57;;;;;;;-145.18;100.00;46511.94;5081571;28;20032;-58
2023/06/17 05:25:11;;;;;;;16.93;11.13;;;;;;;-145.18;100.00;46515.84;5068160;28;20368;-58
2023/06/17 05:27:38;;;;;;;16.23;11.30;;;;;;;-145.18;100.00;46511.94;5073958;28;20506;-56
2023/06/17 05:30:05;;;;;;;15.50;11.20;;;;;;;-145.18;100.00;46515.84;5080287;28;20115;-58
2023/06/17 05:32:30;;;;;;;18.23;11.57;;;;;;;-145.18;100.00;46517.81;5070315;28;20051;-58
2023/06/17 05:34:56;;;;;;;16.90;11.50;;;;;;;-145.18;100.00;46511.94;5080770;28;20492;-55
2023/06/17 05:37:21;;;;;;;17.80;11.77;;;;;;;-145.18;100.00;46513.91;5084225;28;20036;-57
2023/06/17 05:39:46;;;;;;;18.97;11.70;;;;;;;-145.18;100.00;46508.03;5065377;28;20439;-58
2023/06/17 05:42:12;;;;;;;17.40;12.07;;;;;;;-145.18;100.00;46506.09;5091158;28;20080;-57
2023/06/17 05:44:37;;;;;;;18.07;12.00;;;;;;;-145.18;100.00;46510.00;5085180;28;20039;-58
2023/06/17 05:47:03;;;;;;;14.43;10.87;;;;;;;-145.18;100.00;46513.91;5084836;28;20085;-58
2023/06/17 05:49:28;;;;;;;18.43;12.20;;;;;;;-145.18;100.00;46519.75;5091687;28;20071;-58
2023/06/17 05:51:54;;;;;;;15.23;11.70;;;;;;;-145.18;100.00;46515.84;5083286;28;20048;-58
2023/06/17 05:54:19;;;;;;;18.07;13.20;;;;;;;-145.18;100.00;46500.22;5063103;28;20119;-58
2023/06/17 05:56:45;;;;;;;16.20;10.97;;;;;;;-145.18;100.00;46502.19;5084879;28;20039;-57
2023/06/17 05:59:10;;;;;;;16.63;10.43;;;;;;;-145.18;100.00;46504.13;5072554;28;20090;-58
2023/06/17 06:01:35;;;;;;;14.93;10.70;;;;;;;-145.18;100.00;46523.66;5089021;28;20032;-58
2023/06/17 06:04:01;;;;;;;16.43;11.10;;;;;;;-145.18;100.00;46535.38;5062454;28;20040;-57
2023/06/17 06:06:26;;;;;;;15.67;9.83;;;;;;;-145.18;100.00;46547.09;5085664;28;20032;-57
2023/06/17 06:08:52;;;;;;;16.67;10.00;;;;;;;-145.18;100.00;46558.81;5083158;28;20038;-58
2023/06/17 06:11:17;;;;;;;14.27;8.80;;;;;;;-145.18;100.00;46543.19;5086467;28;20031;-58
2023/06/17 06:13:42;;;;;;;14.37;9.87;;;;;;;-145.18;100.00;46558.81;5086627;28;20081;-61
2023/06/17 06:16:09;;;;;;;10.57;8.57;;;;;;;-145.18;100.00;46963.19;5084822;28;20048;-61
2023/06/17 06:18:34;;;;;;;17.67;11.03;;;;;;;-145.18;100.00;47058.91;5077667;28;20063;-61
2023/06/17 06:21:00;;;;;;;12.63;8.90;;;;;;;-145.18;100.00;47199.56;5073697;28;20035;-61
2023/06/17 06:23:25;;;;;;;13.27;8.37;;;;;;;-145.18;100.00;47199.56;5053092;28;20036;-61
2023/06/17 06:25:50;;;;;;;11.37;8.30;;;;;;;-145.18;100.00;47205.41;5053111;28;20029;-61
2023/06/17 06:28:16;;;;;;;10.53;7.97;;;;;;;-145.18;100.00;47168.28;5076897;28;20457;-60
2023/06/17 06:30:41;;;;;;;15.53;7.47;;;;;;;-145.18;100.00;47144.84;5073153;28;20036;-61
2023/06/17 06:33:06;;;;;;;13.60;8.13;;;;;;;-145.18;100.00;47123.38;5078390;28;20029;-60
2023/06/17 06:35:32;;;;;;;10.00;7.33;;;;;;;-145.18;100.00;47109.69;5071454;28;20101;-61
2023/06/17 06:37:57;;;;;;;10.97;7.17;;;;;;;-145.18;100.00;47115.56;5071634;28;20064;-61
2023/06/17 06:40:22;;;;;;;11.93;8.10;;;;;;;-145.18;100.00;47113.59;5075196;28;20036;-61
2023/06/17 06:42:48;;;;;;;10.27;7.93;;;;;;;-145.18;100.00;47117.50;5074641;28;20376;-61
2023/06/17 06:45:13;;;;;;;9.37;6.53;;;;;;;-145.18;100.00;47096.00;5074022;28;20498;-61
2023/06/17 06:47:38;;;;;;;8.40;6.47;;;;;;;-145.18;100.00;47105.78;5090127;28;20060;-61
2023/06/17 06:50:05;;;;;;;7.73;6.30;;;;;;;-145.18;100.00;47086.25;5077604;28;20040;-61
2023/06/17 06:52:31;;;;;;;10.53;6.63;;;;;;;-145.18;100.00;47092.09;5064466;28;20032;-61
2023/06/17 06:54:56;;;;;;;11.20;6.60;;;;;;;-145.18;100.00;47096.00;5074012;28;20041;-60
2023/06/17 06:57:22;;;;;;;9.53;6.53;;;;;;;-145.18;100.00;47097.97;5073365;28;20457;-61
2023/06/17 06:59:47;;;;;;;9.30;6.60;;;;;;;-145.18;100.00;47070.63;5071828;28;20123;-61
2023/06/17 07:02:12;;;;;;;7.73;5.40;;;;;;;-145.18;100.00;47078.44;5088502;28;20437;-61
2023/06/17 07:04:38;;;;;;;20.00;7.80;;;;;;;-145.18;100.00;47084.28;5079349;28;20037;-60
2023/06/17 07:07:04;;;;;;;10.20;7.03;;;;;;;-145.18;100.00;47090.16;5106038;28;20058;-61
2023/06/17 07:09:29;;;;;;;11.10;7.00;;;;;;;-145.18;100.00;47082.34;5076886;28;20029;-61
2023/06/17 07:11:55;;;;;;;12.43;6.67;;;;;;;-145.18;100.00;47078.44;5083333;28;20034;-61
2023/06/17 07:14:20;;;;;;;8.93;6.83;;;;;;;-145.18;100.00;47072.56;5084654;28;20028;-61
2023/06/17 07:16:45;;;;;;;10.93;7.70;;;;;;;-145.18;100.00;47078.44;5082693;28;20059;-61
2023/06/17 07:19:11;;;;;;;10.77;7.83;;;;;;;-145.18;100.00;47072.56;5106992;28;20075;-62
2023/06/17 07:21:36;;;;;;;11.80;7.40;;;;;;;-145.18;100.00;47068.66;5095540;28;20043;-61
2023/06/17 07:24:01;;;;;;;13.10;6.30;;;;;;;-145.18;100.00;47066.72;5091352;28;20040;-58
2023/06/17 07:26:27;;;;;;;9.97;7.10;;;;;;;-145.18;100.00;47066.72;5064454;28;20024;-58
2023/06/17 07:28:53;;;;;;;10.17;6.70;;;;;;;-145.18;100.00;47066.72;5079837;28;20403;-56
2023/06/17 07:31:18;;;;;;;9.17;6.50;;;;;;;-145.18;100.00;47062.81;5080899;28;20123;-58
2023/06/17 07:33:44;;;;;;;10.23;7.50;;;;;;;-145.18;100.00;47058.91;5076019;28;20169;-57
2023/06/17 07:36:09;;;;;;;10.93;7.27;;;;;;;-145.18;100.00;47055.00;5079395;28;20480;-58
2023/06/17 07:38:35;;;;;;;8.63;6.70;;;;;;;-145.18;100.00;47060.84;5082694;28;20122;-58
2023/06/17 07:41:01;;;;;;;7.87;6.57;;;;;;;-145.18;100.00;47053.03;5078082;28;20044;-58
2023/06/17 07:43:26;;;;;;;7.97;5.40;;;;;;;-145.18;100.00;47058.91;5079762;28;20028;-58
2023/06/17 07:45:52;;;;;;;7.60;5.20;;;;;;;-145.18;100.00;47049.13;5084746;28;20081;-58
2023/06/17 07:48:17;;;;;;;13.20;6.03;;;;;;;-145.18;100.00;47047.19;5080034;28;20103;-58
2023/06/17 07:50:43;;;;;;;10.70;6.53;;;;;;;-145.18;100.00;47035.44;5072175;28;20021;-58
2023/06/17 07:53:08;;;;;;;7.87;5.63;;;;;;;-145.18;100.00;47031.53;5077062;28;20167;-58
2023/06/17 07:55:34;;;;;;;7.40;5.77;;;;;;;-145.18;100.00;47035.44;5076421;28;20036;-58
2023/06/17 07:58:00;;;;;;;9.27;5.57;;;;;;;-145.18;100.00;47051.09;5073250;28;20498;-58
2023/06/17 08:00:26;;;;;;;8.87;5.80;;;;;;;-145.18;100.00;47041.31;5080189;28;20984;-58
2023/06/17 08:02:52;;;;;;;7.77;5.27;;;;;;;-145.18;100.00;47039.34;5082147;28;20056;-58
2023/06/17 08:05:17;;;;;;;7.03;4.80;;;;;;;-145.18;100.00;47035.44;5086067;28;20471;-58
2023/06/17 08:07:43;;;;;;;8.67;5.63;;;;;;;-145.18;100.00;47017.88;5072932;28;20102;-58
2023/06/17 08:10:08;;;;;;;9.30;5.80;;;;;;;-145.18;100.00;47013.97;5090024;28;20023;-58
2023/06/17 08:12:34;;;;;;;8.83;6.20;;;;;;;-145.18;100.00;47031.53;5068120;28;20038;-58
2023/06/17 08:14:59;;;;;;;12.23;5.13;;;;;;;-145.18;100.00;47033.50;5057028;28;20030;-58
2023/06/17 08:17:25;;;;;;;5.50;4.30;;;;;;;-145.18;100.00;47029.59;5081291;28;20044;-58
2023/06/17 08:19:50;;;;;;;11.43;5.33;;;;;;;-145.18;100.00;47012.00;5080298;28;20020;-58
2023/06/17 08:22:15;;;;;;;6.80;5.50;;;;;;;-145.18;100.00;47019.81;5073859;28;20380;-57
2023/06/17 08:24:41;;;;;;;9.77;5.37;;;;;;;-145.18;100.00;47012.00;5081787;28;20032;-57
2023/06/17 08:27:09;;;;;;;6.53;5.40;;;;;;;-145.18;100.00;47012.00;5084279;28;20029;-58
2023/06/17 08:29:35;;;;;;;6.20;4.67;;;;;;;-145.18;100.00;47008.09;5099530;28;20028;-58
2023/06/17 08:32:00;;;;;;;7.10;4.43;;;;;;;-145.18;100.00;47004.19;5079932;28;20035;-58
2023/06/17 08:34:30;;;;;;;7.27;5.43;;;;;;;-145.18;100.00;46998.34;5081074;28;20044;-57
2023/06/17 08:36:56;;;;;;;6.77;4.90;;;;;;;-145.18;100.00;46992.47;5075547;28;20530;-58
2023/06/17 08:39:21;;;;;;;5.37;4.40;;;;;;;-145.18;100.00;47000.28;5079609;28;20111;-58
2023/06/17 08:41:47;;;;;;;5.70;4.30;;;;;;;-145.18;100.00;46990.53;5056271;28;20030;-58
2023/06/17 08:44:13;;;;;;;7.73;4.63;;;;;;;-145.18;100.00;46974.91;5073276;28;20036;-58
2023/06/17 08:46:41;;;;;;;7.33;3.90;;;;;;;-145.18;100.00;46984.66;5076921;28;20035;-58
2023/06/17 08:49:07;;;;;;;5.67;4.17;;;;;;;-145.18;100.00;46978.81;5090148;28;20059;-58
2023/06/17 08:51:35;;;;;;;7.00;4.43;;;;;;;-145.18;100.00;46976.84;5092730;28;20103;-58
2023/06/17 08:54:01;;;;;;;6.47;4.60;;;;;;;-145.18;100.00;46992.47;5091850;28;20024;-58
2023/06/17 08:56:27;;;;;;;8.97;4.23;;;;;;;-145.18;100.00;46969.03;5079179;28;20033;-58
2023/06/17 08:58:55;;;;;;;7.50;4.77;;;;;;;-145.18;100.00;46976.84;5084944;28;20024;-59
2023/06/17 09:01:24;;;;;;;6.53;4.80;;;;;;;-145.18;100.00;46986.63;5091190;28;20375;-58
2023/06/17 09:03:51;;;;;;;8.50;4.77;;;;;;;-145.18;100.00;46965.13;5079906;28;20059;-58
2023/06/17 09:06:28;;;;;;;5.80;4.10;;;;;;;-145.18;93.25;46988.56;5076252;28;20066;-58
2023/06/17 09:08:55;;;;;;;5.23;4.23;;;;;;;-145.18;90.63;46969.03;5087331;28;20032;-58
2023/06/17 09:11:25;;;;;;;7.03;3.97;;;;;;;-145.18;100.00;46959.25;5092377;28;20020;-58
2023/06/17 09:13:55;;;;;;;5.33;4.30;;;;;;;-145.18;100.00;46959.25;5095882;28;20052;-58
2023/06/17 09:16:48;;;;;;;6.83;4.23;;;;;;;-145.18;84.21;46967.09;5084537;28;20040;-58
2023/06/17 09:19:14;;;;;;;5.70;3.13;;;;;;;-145.18;84.41;46959.25;5073029;28;20048;-58
2023/06/17 09:21:40;;;;;;;4.33;3.40;;;;;;;-145.18;85.67;46967.09;5076921;28;20491;-58
2023/06/17 09:24:10;;;;;;;8.40;4.13;;;;;;;-145.18;78.47;46961.22;5080137;28;20078;-58
2023/06/17 09:26:43;;;;;;;6.37;4.27;;;;;;;-145.18;95.86;46965.13;5077946;28;20032;-58
2023/06/17 09:29:11;;;;;;;5.53;4.17;;;;;;;-145.18;92.74;46957.31;5087446;28;20039;-58
2023/06/17 09:31:53;;;;;;;4.87;4.27;;;;;;;-145.18;100.00;46963.19;5077459;28;20042;-58
2023/06/17 09:34:22;;;;;;;7.20;4.90;;;;;;;-145.18;89.53;46965.13;5078187;28;20075;-58
2023/06/17 09:37:00;;;;;;;5.77;4.70;;;;;;;-145.18;100.00;46961.22;5088123;28;20028;-58
2023/06/17 09:39:33;;;;;;;9.63;4.90;;;;;;;-145.18;100.00;46957.31;5079883;28;20562;-58
2023/06/17 09:42:10;;;;;;;7.60;4.20;;;;;;;-145.18;84.62;46945.59;5079676;28;20109;-58
2023/06/17 09:44:41;;;;;;;6.40;4.63;;;;;;;-145.18;81.47;46937.78;5084876;28;20020;-62
2023/06/17 09:47:08;;;;;;;6.17;4.60;;;;;;;-145.18;87.94;46939.72;5079130;28;20040;-62
2023/06/17 09:49:35;;;;;;;6.07;4.05;;;;;;;-145.18;91.67;46943.63;5091930;28;20587;-62
2023/06/17 09:52:02;;;;;;;6.72;4.80;;;;;;;-145.18;93.92;46941.69;5075140;28;20112;-63
2023/06/17 09:54:31;;;;;;;6.68;3.70;;;;;;;-145.18;86.13;46931.91;5084607;28;20032;-62
2023/06/17 09:56:59;;;;;;;5.35;4.10;;;;;;;-145.18;84.55;46933.88;5089013;28;20120;-60
2023/06/17 09:59:24;;;;;;;7.10;3.90;;;;;;;-145.18;88.72;46906.53;5075979;28;20039;-62
2023/06/17 10:01:50;;;;;;;7.03;4.70;;;;;;;-145.18;73.96;46924.09;5081289;28;20032;-62
2023/06/17 10:04:16;;;;;;;6.45;4.03;;;;;;;-145.18;68.24;46910.44;5082838;28;20073;-62
2023/06/17 10:06:46;;;;;;;8.93;4.47;;;;;;;-145.18;80.00;46914.34;5072224;28;20032;-62
2023/06/17 10:09:13;;;;;;;6.20;3.40;;;;;;;-145.18;77.71;46904.56;5073266;28;20770;-62
2023/06/17 10:11:43;;;;;;;5.75;3.90;;;;;;;-145.18;72.18;46898.72;5072550;28;20028;-62
2023/06/17 10:14:18;;;;;;;4.05;3.42;;;;;;;-145.18;66.21;46924.09;5072146;28;20140;-62
2023/06/17 10:16:48;;;;;;;5.00;3.58;;;;;;;-145.18;65.51;46914.34;5071957;28;20045;-62
2023/06/17 10:19:17;;;;;;;5.65;4.03;;;;;;;-145.18;74.33;46908.47;5072380;28;20496;-62
2023/06/17 10:21:46;;;;;;;5.22;3.55;;;;;;;-145.18;72.23;46898.72;5072010;28;20472;-63
2023/06/17 10:24:13;;;;;;;5.07;3.92;;;;;;;-145.18;66.94;46896.75;5077619;28;20120;-62
2023/06/17 10:26:38;;;;;;;5.47;3.92;;;;;;;-145.18;71.26;46890.91;5071228;28;20503;-62
2023/06/17 10:29:10;;;;;;;5.10;3.72;;;;;;;-145.18;65.35;46904.56;5071332;28;20032;-62
2023/06/17 10:31:40;;;;;;;5.47;3.88;;;;;;;-145.18;63.45;46920.19;5071663;28;20056;-62
2023/06/17 10:34:13;;;;;;;6.22;3.42;;;;;;;-145.18;67.38;46898.72;5071470;28;20024;-62
2023/06/17 10:36:38;;;;;;;5.95;4.07;;;;;;;-145.18;62.64;46914.34;5072130;28;20028;-62
2023/06/17 10:39:12;;;;;;;5.55;3.70;;;;;;;-145.18;66.04;46918.25;5071972;28;20043;-62
2023/06/17 10:41:37;;;;;;;5.55;3.78;;;;;;;-145.18;68.40;46898.72;5072119;28;20107;-62
2023/06/17 10:44:34;;;;;;;4.78;3.88;;;;;;;-145.18;62.85;46912.38;5067996;28;20115;-62
2023/06/17 10:47:01;;;;;;;9.02;4.18;;;;;;;-145.18;60.67;46902.63;5079782;28;20755;-62
2023/06/17 10:49:38;;;;;;;5.28;4.35;;;;;;;-145.18;58.60;46879.19;5079370;28;20047;-62
2023/06/17 10:52:04;;;;;;;6.50;3.88;;;;;;;-145.18;61.58;46894.81;5075680;28;20032;-62
2023/06/17 10:54:30;;;;;;;5.75;4.38;;;;;;;-145.18;66.65;46898.72;5075363;28;20032;-59
2023/06/17 10:56:56;;;;;;;6.38;4.95;;;;;;;-145.18;74.11;46900.66;5057014;28;20036;-58
2023/06/17 10:59:30;;;;;;;5.00;4.20;;;;;;;-145.18;82.06;46910.44;5075103;28;20077;-58
2023/06/17 11:02:03;;;;;;;5.32;3.70;;;;;;;-145.18;62.77;46908.47;5064146;28;20063;-58
2023/06/17 11:04:32;;;;;;;4.15;3.28;;;;;;;-145.18;59.91;46908.47;5092497;28;20411;-58
2023/06/17 11:07:05;;;;;;;3.80;3.33;;;;;;;-145.18;62.82;46888.94;5078210;28;20088;-58